createdAt,value
2019-04-14T00:02:33.643Z,101095.22
2019-04-14T00:05:04.561Z,101101.75
2019-04-14T00:07:34.042Z,101103.59
2019-04-14T00:10:05.033Z,101103.78
2019-04-14T00:12:35.829Z,101099.92
2019-04-14T00:15:17.620Z,101101.11
2019-04-14T00:17:36.931Z,101096.13
2019-04-14T00:20:07.376Z,101095.69
2019-04-14T00:22:36.569Z,101096.00
2019-04-14T00:25:06.629Z,101094.99
2019-04-14T00:27:36.712Z,101093.69
2019-04-14T00:30:07.992Z,101093.09
2019-04-14T00:35:40.695Z,101092.45
2019-04-14T00:38:34.616Z,101091.03
2019-04-14T00:41:34.374Z,101086.56
2019-04-14T00:44:05.692Z,101085.20
2019-04-14T00:46:47.483Z,101077.66
2019-04-14T00:49:17.871Z,101077.13
2019-04-14T00:51:48.434Z,101077.48
2019-04-14T00:54:17.660Z,101073.39
2019-04-14T00:56:47.646Z,101081.55
2019-04-14T00:59:17.895Z,101077.87
2019-04-14T01:01:48.395Z,101083.09
2019-04-14T01:04:18.740Z,101080.84
2019-04-14T01:06:48.942Z,101073.91
2019-04-14T01:09:19.316Z,101075.33
2019-04-14T01:11:49.111Z,101075.74
2019-04-14T01:14:19.045Z,101081.31
2019-04-14T01:16:49.405Z,101080.33
2019-04-14T01:19:19.833Z,101085.25
2019-04-14T01:21:50.216Z,101087.27
2019-04-14T01:24:20.600Z,101088.02
2019-04-14T01:26:50.664Z,101092.23
2019-04-14T01:29:20.965Z,101094.71
2019-04-14T01:31:51.438Z,101098.16
2019-04-14T01:34:21.671Z,101098.98
2019-04-14T01:36:51.827Z,101102.77
2019-04-14T01:39:22.088Z,101102.92
2019-04-14T01:41:52.121Z,101106.70
2019-04-14T01:44:22.099Z,101110.38
2019-04-14T01:46:52.179Z,101109.61
2019-04-14T01:49:22.485Z,101112.44
2019-04-14T01:52:29.628Z,101118.42
2019-04-14T01:55:26.694Z,101120.94
2019-04-14T01:58:12.227Z,101116.97
2019-04-14T02:00:47.290Z,101124.19
2019-04-14T02:03:17.058Z,101127.62
2019-04-14T02:05:47.251Z,101128.38
2019-04-14T02:08:17.762Z,101130.73
2019-04-14T02:10:47.807Z,101130.26
2019-04-14T02:13:18.181Z,101129.78
2019-04-14T02:15:48.518Z,101130.52
2019-04-14T02:18:18.594Z,101122.56
2019-04-14T02:20:48.936Z,101124.91
2019-04-14T02:23:19.241Z,101126.13
2019-04-14T02:25:49.384Z,101131.91
2019-04-14T02:28:19.799Z,101121.73
2019-04-14T02:31:01.692Z,101119.77
2019-04-14T02:33:46.631Z,101121.00
2019-04-14T02:36:22.020Z,101119.16
2019-04-14T02:41:27.758Z,101128.22
2019-04-14T02:43:48.223Z,101122.94
2019-04-14T02:46:20.474Z,101127.12
2019-04-14T02:51:27.559Z,101128.68
2019-04-14T02:56:40.585Z,101134.94
2019-04-14T02:58:59.896Z,101136.52
2019-04-14T03:01:31.413Z,101139.88
2019-04-14T03:03:58.484Z,101138.98
2019-04-14T03:06:25.368Z,101132.41
2019-04-14T03:20:05.379Z,101129.85
2019-04-14T03:22:37.787Z,101128.89
2019-04-14T03:25:29.637Z,101129.72
2019-04-14T03:28:27.957Z,101128.83
2019-04-14T03:41:10.563Z,101131.13
2019-04-14T03:43:39.242Z,101135.58
2019-04-14T03:46:11.564Z,101136.30
2019-04-14T03:51:08.554Z,101145.00
2019-04-14T03:53:32.150Z,101147.64
2019-04-14T03:56:21.299Z,101142.44
2019-04-14T03:58:51.148Z,101141.13
2019-04-14T04:01:21.512Z,101139.31
2019-04-14T04:03:52.087Z,101142.59
2019-04-14T04:06:22.393Z,101148.00
2019-04-14T04:08:51.548Z,101142.25
2019-04-14T04:11:21.474Z,101143.89
2019-04-14T04:13:52.055Z,101137.62
2019-04-14T04:16:50.783Z,101144.95
2019-04-14T04:19:59.853Z,101149.19
2019-04-14T04:22:47.663Z,101155.55
2019-04-14T04:25:31.168Z,101151.77
2019-04-14T04:28:19.238Z,101155.39
2019-04-14T04:30:53.693Z,101153.50
2019-04-14T04:33:45.932Z,101153.35
2019-04-14T04:36:37.776Z,101152.80
2019-04-14T04:39:21.358Z,101164.36
2019-04-14T04:41:51.586Z,101167.48
2019-04-14T04:44:20.691Z,101162.77
2019-04-14T04:46:50.480Z,101162.77
2019-04-14T04:49:23.079Z,101165.37
2019-04-14T04:51:50.843Z,101177.78
2019-04-14T04:54:21.046Z,101170.05
2019-04-14T04:56:50.248Z,101168.86
2019-04-14T04:59:19.366Z,101169.00
2019-04-14T05:01:49.416Z,101163.61
2019-04-14T05:04:19.606Z,101169.37
2019-04-14T05:07:38.330Z,101171.48
2019-04-14T05:10:26.427Z,101174.77
2019-04-14T05:13:18.317Z,101172.23
2019-04-14T05:15:53.628Z,101175.31
2019-04-14T05:18:24.715Z,101176.28
2019-04-14T05:20:55.226Z,101180.52
2019-04-14T05:23:25.626Z,101175.38
2019-04-14T05:25:56.142Z,101179.09
2019-04-14T05:28:26.572Z,101185.95
2019-04-14T05:30:56.868Z,101183.20
2019-04-14T05:33:27.074Z,101183.89
2019-04-14T05:35:57.438Z,101182.05
2019-04-14T05:38:29.347Z,101187.65
2019-04-14T05:40:58.391Z,101190.53
2019-04-14T05:43:38.666Z,101190.95
2019-04-14T05:45:59.319Z,101190.38
2019-04-14T05:48:29.374Z,101198.45
2019-04-14T05:50:59.777Z,101197.91
2019-04-14T05:53:30.456Z,101194.79
2019-04-14T05:56:01.319Z,101207.88
2019-04-14T05:58:31.701Z,101205.78
2019-04-14T06:01:02.424Z,101203.98
2019-04-14T06:03:32.137Z,101206.45
2019-04-14T06:06:01.361Z,101152.89
2019-04-14T06:08:30.487Z,101217.50
2019-04-14T06:10:59.725Z,101223.80
2019-04-14T06:13:28.843Z,101220.47
2019-04-14T06:15:58.017Z,101219.84
2019-04-14T06:18:27.139Z,101216.53
2019-04-14T06:20:56.279Z,101216.85
2019-04-14T06:23:25.553Z,101219.74
2019-04-14T06:25:54.714Z,101220.00
2019-04-14T06:28:23.878Z,101223.69
2019-04-14T06:31:10.791Z,101221.36
2019-04-14T06:33:46.685Z,101213.48
2019-04-14T06:36:33.352Z,101205.22
2019-04-14T06:39:08.595Z,101202.41
2019-04-14T06:41:37.767Z,101210.92
2019-04-14T06:44:06.911Z,101207.47
2019-04-14T06:46:36.092Z,101210.43
2019-04-14T06:49:05.281Z,101204.78
2019-04-14T06:51:34.393Z,101208.86
2019-04-14T06:54:03.553Z,101211.50
2019-04-14T06:56:32.750Z,101204.72
2019-04-14T06:59:01.895Z,101212.05
2019-04-14T07:01:31.039Z,101209.25
2019-04-14T07:04:00.182Z,101209.87
2019-04-14T07:06:29.294Z,101214.33
2019-04-14T07:08:58.508Z,101204.95
2019-04-14T07:11:27.689Z,101204.63
2019-04-14T07:13:56.813Z,101210.75
2019-04-14T07:16:25.984Z,101203.59
2019-04-14T07:18:55.126Z,101196.47
2019-04-14T07:21:24.271Z,101201.84
2019-04-14T07:23:53.452Z,101201.88
2019-04-14T07:26:22.601Z,101190.54
2019-04-14T07:28:56.793Z,101193.66
2019-04-14T07:31:34.139Z,101191.52
2019-04-14T07:34:37.526Z,101185.73
2019-04-14T07:37:25.738Z,101191.92
2019-04-14T07:39:58.199Z,101180.28
2019-04-14T07:42:39.760Z,101181.48
2019-04-14T07:45:18.389Z,101174.30
2019-04-14T07:48:09.290Z,101179.72
2019-04-14T07:50:57.432Z,101182.97
2019-04-14T07:53:51.406Z,101177.54
2019-04-14T07:56:31.813Z,101175.20
2019-04-14T07:59:15.756Z,101172.44
2019-04-14T08:01:52.525Z,101175.95
2019-04-14T08:04:25.912Z,101176.50
2019-04-14T08:06:57.618Z,101170.45
2019-04-14T08:09:26.758Z,101173.39
2019-04-14T08:11:55.919Z,101168.84
2019-04-14T08:14:25.119Z,101174.41
2019-04-14T08:16:54.272Z,101172.99
2019-04-14T08:19:23.448Z,101178.06
2019-04-14T08:21:52.542Z,101179.50
2019-04-14T08:24:21.718Z,101178.07
2019-04-14T08:26:50.881Z,101049.02
2019-04-14T08:29:20.235Z,101185.40
2019-04-14T08:31:49.799Z,101185.23
2019-04-14T08:34:18.930Z,101187.28
2019-04-14T08:36:48.079Z,101195.39
2019-04-14T08:39:17.232Z,101199.32
2019-04-14T08:41:54.157Z,101194.73
2019-04-14T08:44:42.228Z,101198.42
2019-04-14T08:47:21.906Z,101192.13
2019-04-14T08:50:19.025Z,101190.86
2019-04-14T08:53:10.232Z,101193.28
2019-04-14T08:56:04.206Z,101189.52
2019-04-14T08:58:52.319Z,101190.69
2019-04-14T09:01:39.331Z,101188.92
2019-04-14T09:04:33.651Z,101186.97
2019-04-14T09:07:27.673Z,101186.60
2019-04-14T09:10:00.975Z,101187.52
2019-04-14T09:12:33.208Z,101185.97
2019-04-14T09:15:02.447Z,101188.02
2019-04-14T09:17:31.579Z,101190.00
2019-04-14T09:20:00.713Z,101189.42
2019-04-14T09:22:29.856Z,101191.85
2019-04-14T09:24:58.971Z,101192.18
2019-04-14T09:27:28.128Z,101191.48
2019-04-14T09:29:57.260Z,101200.53
2019-04-14T09:32:27.468Z,101197.55
2019-04-14T09:34:56.635Z,101198.87
2019-04-14T09:37:25.787Z,101193.54
2019-04-14T09:39:54.909Z,101202.19
2019-04-14T09:42:24.047Z,101195.21
2019-04-14T09:44:53.177Z,101195.73
2019-04-14T09:47:22.340Z,101200.19
2019-04-14T09:49:51.449Z,101197.13
2019-04-14T09:52:20.566Z,101206.44
2019-04-14T09:54:49.803Z,101206.87
2019-04-14T09:57:18.955Z,101208.18
2019-04-14T09:59:48.118Z,101206.36
2019-04-14T10:02:17.257Z,101204.15
2019-04-14T10:04:46.399Z,101205.49
2019-04-14T10:07:15.540Z,101213.52
2019-04-14T10:09:44.687Z,101204.25
2019-04-14T10:12:13.837Z,101210.88
2019-04-14T10:14:42.979Z,101201.16
2019-04-14T10:17:12.269Z,101207.26
2019-04-14T10:19:41.410Z,101214.04
2019-04-14T10:22:10.565Z,101215.20
2019-04-14T10:24:39.709Z,101221.73
2019-04-14T10:27:08.996Z,101228.05
2019-04-14T10:29:38.129Z,101223.34
2019-04-14T10:32:07.316Z,101242.21
2019-04-14T10:34:36.452Z,101232.19
2019-04-14T10:37:05.645Z,101235.78
2019-04-14T10:39:34.803Z,101236.05
2019-04-14T10:42:04.018Z,101242.50
2019-04-14T10:44:33.184Z,101239.77
2019-04-14T10:47:02.323Z,101237.97
2019-04-14T10:49:31.460Z,101237.03
2019-04-14T10:52:00.595Z,101242.17
2019-04-14T10:54:29.730Z,101233.09
2019-04-14T10:57:01.072Z,101230.88
2019-04-14T10:59:29.729Z,101229.98
2019-04-14T11:01:58.867Z,101229.94
2019-04-14T11:04:28.007Z,101230.37
2019-04-14T11:07:22.196Z,101226.50
2019-04-14T11:09:53.837Z,101235.11
2019-04-14T11:12:22.190Z,101231.84
2019-04-14T11:14:51.332Z,101226.09
2019-04-14T11:17:20.473Z,101234.06
2019-04-14T11:19:49.633Z,101227.97
2019-04-14T11:22:18.794Z,101234.17
2019-04-14T11:24:47.945Z,101232.72
2019-04-14T11:27:17.079Z,101230.47
2019-04-14T11:29:46.289Z,101228.73
2019-04-14T11:32:37.210Z,101229.24
2019-04-14T11:35:12.230Z,101228.91
2019-04-14T11:38:06.436Z,101226.63
2019-04-14T11:40:40.566Z,101233.49
2019-04-14T11:43:09.794Z,101239.25
2019-04-14T11:45:39.137Z,101237.86
2019-04-14T11:48:08.280Z,101240.59
2019-04-14T11:50:37.440Z,101241.76
2019-04-14T11:53:06.584Z,101247.20
2019-04-14T11:55:35.698Z,101241.76
2019-04-14T11:58:04.841Z,101244.13
2019-04-14T12:00:55.828Z,101248.69
2019-04-14T12:03:46.935Z,101247.27
2019-04-14T12:06:44.070Z,101249.21
2019-04-14T12:09:18.807Z,101255.45
2019-04-14T12:11:47.040Z,101260.21
2019-04-14T12:14:16.122Z,101257.30
2019-04-14T12:16:45.237Z,101256.89
2019-04-14T12:19:14.398Z,101257.30
2019-04-14T12:21:43.512Z,101261.17
2019-04-14T12:24:12.666Z,101258.05
2019-04-14T12:26:41.868Z,101261.66
2019-04-14T12:29:11.836Z,101263.03
2019-04-14T12:31:41.986Z,101267.95
2019-04-14T12:34:11.252Z,101265.26
2019-04-14T12:36:40.468Z,101269.89
2019-04-14T12:39:17.153Z,101268.98
2019-04-14T12:41:50.839Z,101268.52
2019-04-14T12:44:37.450Z,101274.13
2019-04-14T12:47:28.861Z,101278.92
2019-04-14T12:49:58.577Z,101283.25
2019-04-14T12:52:28.408Z,101273.83
2019-04-14T12:54:57.906Z,101278.78
2019-04-14T12:57:34.570Z,101270.53
2019-04-14T13:00:05.961Z,101279.70
2019-04-14T13:02:37.896Z,101271.20
2019-04-14T13:05:07.270Z,101274.00
2019-04-14T13:07:36.916Z,101281.71
2019-04-14T13:10:07.512Z,101278.69
2019-04-14T13:12:36.637Z,101281.01
2019-04-14T13:15:06.673Z,101276.23
2019-04-14T13:17:35.801Z,101271.91
2019-04-14T13:20:05.365Z,101203.22
2019-04-14T13:22:34.593Z,101275.17
2019-04-14T13:25:03.831Z,101283.81
2019-04-14T13:27:33.006Z,101275.45
2019-04-14T13:30:02.137Z,101279.80
2019-04-14T13:32:36.259Z,101283.36
2019-04-14T13:35:02.131Z,101282.05
2019-04-14T13:37:31.273Z,101276.91
2019-04-14T13:40:00.385Z,101285.17
2019-04-14T13:42:29.554Z,101286.42
2019-04-14T13:44:58.685Z,101290.41
2019-04-14T13:47:27.885Z,101286.55
2019-04-14T13:49:57.049Z,101291.72
2019-04-14T13:52:26.188Z,101292.24
2019-04-14T13:54:55.293Z,101283.89
2019-04-14T13:57:24.435Z,101286.30
2019-04-14T13:59:53.701Z,101280.12
2019-04-14T14:02:22.877Z,101276.14
2019-04-14T14:04:51.990Z,101277.85
2019-04-14T14:07:21.122Z,101275.25
2019-04-14T14:09:50.255Z,101278.77
2019-04-14T14:12:41.192Z,101275.98
2019-04-14T14:15:28.251Z,101273.31
2019-04-14T14:18:06.952Z,101274.23
2019-04-14T14:21:01.319Z,101276.38
2019-04-14T14:23:49.380Z,101111.13
2019-04-14T14:26:19.617Z,101264.11
2019-04-14T14:28:48.756Z,101265.39
2019-04-14T14:31:19.151Z,101268.84
2019-04-14T14:33:48.276Z,101276.34
2019-04-14T14:36:17.413Z,101267.04
2019-04-14T14:38:46.560Z,101268.88
2019-04-14T14:41:17.364Z,101271.84
2019-04-14T14:43:46.493Z,101270.49
2019-04-14T14:46:36.827Z,101272.99
2019-04-14T14:49:12.003Z,101274.08
2019-04-14T14:51:52.812Z,101271.23
2019-04-14T14:54:21.947Z,101275.97
2019-04-14T14:56:51.276Z,101270.74
2019-04-14T14:59:20.391Z,101273.30
2019-04-14T15:01:49.559Z,101233.41
2019-04-14T15:04:19.191Z,101279.48
2019-04-14T15:06:48.535Z,101273.84
2019-04-14T15:09:17.677Z,101272.10
2019-04-14T15:11:46.800Z,101278.73
2019-04-14T15:14:15.970Z,101284.58
2019-04-14T15:16:45.118Z,101281.84
2019-04-14T15:19:14.640Z,101279.02
2019-04-14T15:21:43.810Z,101285.77
2019-04-14T15:24:13.004Z,101282.52
2019-04-14T15:26:42.139Z,101282.40
2019-04-14T15:29:11.271Z,101283.20
2019-04-14T15:31:40.414Z,101285.75
2019-04-14T15:34:10.743Z,101279.48
2019-04-14T15:36:40.088Z,101285.67
2019-04-14T15:39:10.029Z,101288.22
2019-04-14T15:41:39.362Z,101281.81
2019-04-14T15:44:08.416Z,101286.80
2019-04-14T15:46:37.572Z,101290.48
2019-04-14T15:49:06.726Z,101293.41
2019-04-14T15:51:35.872Z,101291.67
2019-04-14T15:54:05.022Z,101289.20
2019-04-14T15:56:50.032Z,101287.59
2019-04-14T15:59:35.626Z,101287.31
2019-04-14T16:02:16.560Z,101283.92
2019-04-14T16:05:16.713Z,101286.66
2019-04-14T16:08:02.586Z,101284.54
2019-04-14T16:11:02.571Z,101279.33
2019-04-14T16:13:50.688Z,101287.31
2019-04-14T16:16:37.503Z,101291.53
2019-04-14T16:19:28.472Z,101289.89
2019-04-14T16:21:57.581Z,101292.48
2019-04-14T16:24:26.682Z,101289.34
2019-04-14T16:27:02.977Z,101290.66
2019-04-14T16:29:50.028Z,101298.11
2019-04-14T16:32:40.967Z,101289.73
2019-04-14T16:35:14.468Z,101291.13
2019-04-14T16:37:43.648Z,101291.63
2019-04-14T16:40:12.931Z,101288.63
2019-04-14T16:42:42.141Z,101291.63
2019-04-14T16:45:12.197Z,101289.81
2019-04-14T16:47:41.346Z,101290.58
2019-04-14T16:50:10.680Z,101294.86
2019-04-14T16:52:46.248Z,101298.72
2019-04-14T16:55:19.967Z,101299.35
2019-04-14T16:58:08.529Z,101298.37
2019-04-14T17:00:41.064Z,101308.88
2019-04-14T17:03:10.239Z,101307.52
2019-04-14T17:05:39.398Z,101311.13
2019-04-14T17:08:08.542Z,101316.16
2019-04-14T17:10:37.689Z,101315.98
2019-04-14T17:13:06.873Z,101315.98
2019-04-14T17:16:00.923Z,101317.77
2019-04-14T17:18:47.566Z,101318.19
2019-04-14T17:21:30.795Z,101317.76
2019-04-14T17:24:21.922Z,101321.61
2019-04-14T17:27:00.855Z,101325.88
2019-04-14T17:29:36.499Z,101328.92
2019-04-14T17:32:16.043Z,101331.59
2019-04-14T17:35:02.915Z,101334.17
2019-04-14T17:37:48.001Z,101337.17
2019-04-14T17:43:39.679Z,101344.07
2019-04-14T17:46:27.794Z,101344.12
2019-04-14T17:49:21.223Z,101345.72
2019-04-14T17:52:09.371Z,101348.66
2019-04-14T17:54:48.435Z,101348.10
2019-04-14T17:57:35.279Z,101350.73
2019-04-14T18:00:16.298Z,101360.95
2019-04-14T18:03:04.400Z,101356.86
2019-04-14T18:05:40.690Z,101358.55
2019-04-14T18:08:29.191Z,101373.88
2019-04-14T18:11:07.041Z,101373.36
2019-04-14T18:13:55.169Z,101381.65
2019-04-14T18:16:32.184Z,101381.18
2019-04-14T18:19:20.345Z,101380.76
2019-04-14T18:21:49.447Z,101379.07
2019-04-14T18:24:18.600Z,101387.41
2019-04-14T18:26:47.744Z,101389.19
2019-04-14T18:29:37.790Z,101387.83
2019-04-14T18:32:25.868Z,101389.94
2019-04-14T18:35:13.684Z,101393.45
2019-04-14T18:38:17.001Z,101395.61
2019-04-14T18:40:54.191Z,101401.70
2019-04-14T18:43:48.142Z,101407.37
2019-04-14T18:46:28.409Z,101406.90
2019-04-14T18:49:03.327Z,101411.30
2019-04-14T18:51:42.422Z,101410.78
2019-04-14T18:54:17.860Z,101407.64
2019-04-14T18:57:24.003Z,101415.56
2019-04-14T19:00:12.099Z,101412.94
2019-04-14T19:02:41.319Z,101419.97
2019-04-14T19:05:10.437Z,101428.21
2019-04-14T19:07:39.637Z,101422.49
2019-04-14T19:10:08.867Z,101427.32
2019-04-14T19:12:53.221Z,101429.98
2019-04-14T19:15:41.339Z,101431.30
2019-04-14T19:18:16.760Z,101430.46
2019-04-14T19:20:49.721Z,101432.24
2019-04-14T19:23:19.097Z,101433.55
2019-04-14T19:25:48.246Z,101431.87
2019-04-14T19:28:17.443Z,101437.58
2019-04-14T19:30:46.640Z,101429.66
2019-04-14T19:33:15.843Z,101436.27
2019-04-14T19:35:44.992Z,101436.74
2019-04-14T19:38:14.139Z,101439.37
2019-04-14T19:40:43.334Z,101441.61
2019-04-14T19:43:23.155Z,101432.43
2019-04-14T19:45:43.558Z,101437.68
2019-04-14T19:48:12.711Z,101440.77
2019-04-14T19:50:41.956Z,101434.68
2019-04-14T19:53:11.215Z,101439.09
2019-04-14T19:55:40.473Z,101441.23
2019-04-14T19:58:09.639Z,101435.48
2019-04-14T20:00:38.797Z,101439.45
2019-04-14T20:03:07.911Z,101437.68
2019-04-14T20:05:37.096Z,101440.30
2019-04-14T20:08:06.408Z,101443.77
2019-04-14T20:10:35.682Z,101441.14
2019-04-14T20:13:04.985Z,101442.08
2019-04-14T20:15:37.584Z,101440.30
2019-04-14T20:18:23.253Z,101445.55
2019-04-14T20:21:10.130Z,101445.55
2019-04-14T20:23:43.096Z,101442.83
2019-04-14T20:26:37.773Z,101447.61
2019-04-14T20:29:19.252Z,101442.36
2019-04-14T20:31:54.260Z,101444.56
2019-04-14T20:34:23.388Z,101445.41
2019-04-14T20:36:52.570Z,101440.06
2019-04-14T20:39:22.230Z,101440.86
2019-04-14T20:41:51.358Z,101441.33
2019-04-14T20:44:20.590Z,101431.72
2019-04-14T20:46:49.741Z,101432.20
2019-04-14T20:49:18.880Z,101429.62
2019-04-14T20:51:48.107Z,101434.06
2019-04-14T20:54:17.242Z,101430.56
2019-04-14T20:56:46.391Z,101433.65
2019-04-14T20:59:15.609Z,101434.02
2019-04-14T21:01:50.923Z,101429.62
2019-04-14T21:04:28.961Z,101429.57
2019-04-14T21:07:32.407Z,101435.66
2019-04-14T21:10:12.373Z,101437.39
2019-04-14T21:13:00.469Z,101440.86
2019-04-14T21:15:34.600Z,101441.33
2019-04-14T21:18:25.581Z,101440.91
2019-04-14T21:21:05.419Z,101444.89
2019-04-14T21:23:40.725Z,101446.20
2019-04-14T21:26:28.803Z,101447.94
2019-04-14T21:29:10.968Z,101443.95
2019-04-14T21:31:48.721Z,101446.05
2019-04-14T21:34:36.827Z,101440.39
2019-04-14T21:37:23.702Z,101446.99
2019-04-14T21:40:15.039Z,101440.91
2019-04-14T21:42:44.463Z,101448.83
2019-04-14T21:45:13.617Z,101451.49
2019-04-14T21:47:42.751Z,101455.48
2019-04-14T21:50:12.063Z,101452.86
2019-04-14T21:52:43.869Z,101455.11
2019-04-14T21:55:12.999Z,101459.04
2019-04-14T21:58:04.719Z,101456.41
2019-04-14T22:01:44.849Z,101462.97
2019-04-14T22:04:48.319Z,101466.91
2019-04-14T22:07:30.247Z,101341.95
2019-04-14T22:10:30.390Z,101470.00
2019-04-14T22:12:59.507Z,101472.20
2019-04-14T22:15:28.683Z,101474.88
2019-04-14T22:17:57.852Z,101477.97
2019-04-14T22:20:26.991Z,101480.55
2019-04-14T22:22:56.180Z,101477.03
2019-04-14T22:25:25.355Z,101480.97
2019-04-14T22:27:54.562Z,101178.62
2019-04-14T22:30:23.695Z,101477.03
2019-04-14T22:32:52.855Z,101475.72
2019-04-14T22:35:22.069Z,101480.08
2019-04-14T22:37:51.214Z,101480.13
2019-04-14T22:40:20.331Z,101479.66
2019-04-14T22:42:50.096Z,101487.52
2019-04-14T22:45:19.230Z,101486.22
2019-04-14T22:47:48.678Z,101486.22
2019-04-14T22:50:17.803Z,101491.04
2019-04-14T22:52:46.952Z,101491.93
2019-04-14T22:55:16.058Z,101492.77
2019-04-14T22:57:45.214Z,101499.80
2019-04-14T23:00:33.160Z,101499.28
2019-04-14T23:03:18.450Z,101503.73
2019-04-14T23:06:06.544Z,101498.91
2019-04-14T23:08:39.956Z,101497.65
2019-04-14T23:11:29.341Z,101501.58
2019-04-14T23:14:13.804Z,101502.05
2019-04-14T23:17:00.456Z,101491.88
2019-04-14T23:19:34.698Z,101491.84
2019-04-14T23:22:14.440Z,101488.32
2019-04-14T23:24:46.042Z,101490.05
2019-04-14T23:27:15.202Z,101488.73
2019-04-14T23:29:44.367Z,101493.14
2019-04-14T23:32:13.524Z,101491.84
2019-04-14T23:34:42.695Z,101493.14
2019-04-14T23:37:11.854Z,101491.41
2019-04-14T23:39:41.118Z,101490.05
2019-04-14T23:42:10.331Z,101489.16
2019-04-14T23:44:39.484Z,101487.37
2019-04-14T23:47:08.653Z,101486.48
2019-04-14T23:49:37.790Z,101479.45
2019-04-14T23:52:06.957Z,101471.59
2019-04-14T23:54:36.077Z,101475.52
2019-04-14T23:57:06.725Z,101470.28
2019-04-14T23:59:36.048Z,101473.79
